createdAt,value
2023-02-22T00:00:59.840Z,52.19
2023-02-22T00:03:32.408Z,52.23
2023-02-22T00:06:05.211Z,52.18
2023-02-22T00:08:36.836Z,52.25
2023-02-22T00:11:10.141Z,52.33
2023-02-22T00:13:38.548Z,52.33
2023-02-22T00:16:06.573Z,52.20
2023-02-22T00:18:34.033Z,53.05
2023-02-22T00:21:01.739Z,53.47
2023-02-22T00:23:31.744Z,52.77
2023-02-22T00:26:00.421Z,53.00
2023-02-22T00:28:28.141Z,53.71
2023-02-22T00:30:55.892Z,53.72
2023-02-22T00:33:23.618Z,53.71
2023-02-22T00:35:51.405Z,53.94
2023-02-22T00:38:19.351Z,53.92
2023-02-22T00:40:46.860Z,53.95
2023-02-22T00:43:14.946Z,53.90
2023-02-22T00:45:42.624Z,53.95
2023-02-22T00:48:10.782Z,54.02
2023-02-22T00:50:38.529Z,54.17
2023-02-22T00:53:07.438Z,54.01
2023-02-22T00:55:36.388Z,54.11
2023-02-22T00:58:05.203Z,53.86
2023-02-22T01:00:38.642Z,54.27
2023-02-22T01:03:10.677Z,54.03
2023-02-22T01:05:38.411Z,53.79
2023-02-22T01:08:08.264Z,53.74
2023-02-22T01:10:36.575Z,53.67
2023-02-22T01:13:09.175Z,53.40
2023-02-22T01:15:38.723Z,53.42
2023-02-22T01:18:06.686Z,53.39
2023-02-22T01:20:34.612Z,53.63
2023-02-22T01:23:06.383Z,53.73
2023-02-22T01:25:34.784Z,53.89
2023-02-22T01:28:03.645Z,54.05
2023-02-22T01:30:34.559Z,53.91
2023-02-22T01:33:03.990Z,53.54
2023-02-22T01:35:35.920Z,53.24
2023-02-22T01:38:03.439Z,53.75
2023-02-22T01:40:34.461Z,53.83
2023-02-22T01:43:10.952Z,53.99
2023-02-22T01:45:44.654Z,53.89
2023-02-22T01:48:17.447Z,53.71
2023-02-22T01:50:55.243Z,54.06
2023-02-22T01:53:27.157Z,53.83
2023-02-22T01:55:55.074Z,53.56
2023-02-22T01:58:24.841Z,53.98
2023-02-22T02:00:52.287Z,54.25
2023-02-22T02:03:27.684Z,54.48
2023-02-22T02:05:59.098Z,54.35
2023-02-22T02:08:49.884Z,54.40
2023-02-22T02:11:24.665Z,54.73
2023-02-22T02:13:57.431Z,54.70
2023-02-22T02:16:31.206Z,54.46
2023-02-22T02:18:58.599Z,54.61
2023-02-22T02:21:38.606Z,55.00
2023-02-22T02:24:30.178Z,54.40
2023-02-22T02:27:18.962Z,55.01
2023-02-22T02:29:52.567Z,55.19
2023-02-22T02:32:28.035Z,55.03
2023-02-22T02:35:21.567Z,55.31
2023-02-22T02:38:10.894Z,55.83
2023-02-22T02:41:04.211Z,56.28
2023-02-22T02:43:52.004Z,56.46
2023-02-22T02:46:32.094Z,56.13
2023-02-22T02:49:04.781Z,56.23
2023-02-22T02:51:39.028Z,55.85
2023-02-22T02:54:07.788Z,55.75
2023-02-22T02:56:35.631Z,56.41
2023-02-22T02:59:03.025Z,56.25
2023-02-22T03:01:36.180Z,56.39
2023-02-22T03:04:43.416Z,56.14
2023-02-22T03:07:11.103Z,56.26
2023-02-22T03:10:13.182Z,56.59
2023-02-22T03:13:15.174Z,56.33
2023-02-22T03:15:58.116Z,56.23
2023-02-22T03:18:37.003Z,56.76
2023-02-22T03:21:21.180Z,56.41
2023-02-22T03:24:01.423Z,56.17
2023-02-22T03:26:38.130Z,56.32
2023-02-22T03:29:06.944Z,56.61
2023-02-22T03:31:39.559Z,56.69
2023-02-22T03:34:12.010Z,56.55
2023-02-22T03:36:55.962Z,56.09
2023-02-22T03:39:30.879Z,56.39
2023-02-22T03:42:14.193Z,56.57
2023-02-22T03:44:43.593Z,56.85
2023-02-22T03:47:22.666Z,56.75
2023-02-22T03:50:06.934Z,56.96
2023-02-22T03:52:37.846Z,56.78
2023-02-22T03:55:11.130Z,57.00
2023-02-22T03:57:41.767Z,56.88
2023-02-22T04:00:14.492Z,56.86
2023-02-22T04:02:41.970Z,57.10
2023-02-22T04:05:11.807Z,56.96
2023-02-22T04:07:39.766Z,56.62
2023-02-22T04:10:08.667Z,57.08
2023-02-22T04:12:37.947Z,57.11
2023-02-22T04:15:07.045Z,56.76
2023-02-22T04:17:34.947Z,56.39
2023-02-22T04:20:03.928Z,56.51
2023-02-22T04:22:34.326Z,56.40
2023-02-22T04:25:01.873Z,56.49
2023-02-22T04:27:29.565Z,56.49
2023-02-22T04:29:57.252Z,56.56
2023-02-22T04:32:24.849Z,56.62
2023-02-22T04:34:53.135Z,56.70
2023-02-22T04:37:20.540Z,56.57
2023-02-22T04:39:48.004Z,56.48
2023-02-22T04:42:15.836Z,56.52
2023-02-22T04:44:43.265Z,56.63
2023-02-22T04:47:10.723Z,56.95
2023-02-22T04:49:39.155Z,57.08
2023-02-22T04:52:07.110Z,57.14
2023-02-22T04:54:34.592Z,57.34
2023-02-22T04:57:02.733Z,57.19
2023-02-22T04:59:30.189Z,57.29
2023-02-22T05:02:00.727Z,57.10
2023-02-22T05:04:28.398Z,57.11
2023-02-22T05:06:55.852Z,57.07
2023-02-22T05:09:23.403Z,57.00
2023-02-22T05:11:51.117Z,57.02
2023-02-22T05:14:18.510Z,57.05
2023-02-22T05:16:45.955Z,56.92
2023-02-22T05:19:13.830Z,57.06
2023-02-22T05:21:41.363Z,56.90
2023-02-22T05:24:08.750Z,57.05
2023-02-22T05:26:36.382Z,57.06
2023-02-22T05:29:03.736Z,57.07
2023-02-22T05:31:31.161Z,56.89
2023-02-22T05:33:58.852Z,56.70
2023-02-22T05:36:28.038Z,56.84
2023-02-22T05:38:56.273Z,56.81
2023-02-22T05:41:23.982Z,56.86
2023-02-22T05:43:51.590Z,57.53
2023-02-22T05:46:19.058Z,57.34
2023-02-22T05:48:46.772Z,57.42
2023-02-22T05:51:14.345Z,57.61
2023-02-22T05:53:42.562Z,57.33
2023-02-22T05:56:10.328Z,57.11
2023-02-22T05:58:37.735Z,57.17
2023-02-22T06:01:05.345Z,57.24
2023-02-22T06:03:32.974Z,57.21
2023-02-22T06:06:00.322Z,57.37
2023-02-22T06:08:27.720Z,57.58
2023-02-22T06:10:55.356Z,57.66
2023-02-22T06:13:22.787Z,57.81
2023-02-22T06:15:50.285Z,57.77
2023-02-22T06:18:18.144Z,57.74
2023-02-22T06:20:45.488Z,57.72
2023-02-22T06:23:12.866Z,58.33
2023-02-22T06:25:40.574Z,57.83
2023-02-22T06:28:07.958Z,56.95
2023-02-22T06:30:35.512Z,56.81
2023-02-22T06:33:03.308Z,56.83
2023-02-22T06:35:30.712Z,56.92
2023-02-22T06:37:58.081Z,56.52
2023-02-22T06:40:29.492Z,57.14
2023-02-22T06:42:58.410Z,56.96
2023-02-22T06:45:26.460Z,56.68
2023-02-22T06:47:53.998Z,56.69
2023-02-22T06:50:31.491Z,56.32
2023-02-22T06:52:59.197Z,56.87
2023-02-22T06:55:28.628Z,56.74
2023-02-22T06:57:56.079Z,56.71
2023-02-22T07:00:25.923Z,56.48
2023-02-22T07:02:54.209Z,57.06
2023-02-22T07:05:22.863Z,56.67
2023-02-22T07:07:52.687Z,56.63
2023-02-22T07:10:29.695Z,56.88
2023-02-22T07:12:57.512Z,56.39
2023-02-22T07:15:26.455Z,56.41
2023-02-22T07:17:53.960Z,56.29
2023-02-22T07:20:22.621Z,56.39
2023-02-22T07:22:50.644Z,56.03
2023-02-22T07:25:19.326Z,56.19
2023-02-22T07:27:47.361Z,55.57
2023-02-22T07:30:19.661Z,56.07
2023-02-22T07:32:47.501Z,55.25
2023-02-22T07:35:20.609Z,55.08
2023-02-22T07:37:48.342Z,55.15
2023-02-22T07:40:16.818Z,55.57
2023-02-22T07:43:07.057Z,55.22
2023-02-22T07:45:35.643Z,55.52
2023-02-22T07:48:04.819Z,55.51
2023-02-22T07:50:33.462Z,55.43
2023-02-22T07:53:03.290Z,55.10
2023-02-22T07:55:32.397Z,54.94
2023-02-22T07:58:01.970Z,57.61
2023-02-22T08:00:35.119Z,54.45
2023-02-22T08:03:05.222Z,53.89
2023-02-22T08:05:33.483Z,53.24
2023-02-22T08:08:01.682Z,52.82
2023-02-22T08:10:29.469Z,52.44
2023-02-22T08:12:57.057Z,52.45
2023-02-22T08:15:25.492Z,52.22
2023-02-22T08:17:53.651Z,52.87
2023-02-22T08:20:22.097Z,52.66
2023-02-22T08:22:50.088Z,51.61
2023-02-22T08:25:20.301Z,52.06
2023-02-22T08:27:47.984Z,51.34
2023-02-22T08:30:18.490Z,51.39
2023-02-22T08:32:47.562Z,51.39
2023-02-22T08:35:16.780Z,50.67
2023-02-22T08:37:56.265Z,50.83
2023-02-22T08:40:25.810Z,50.85
2023-02-22T08:42:53.764Z,50.91
2023-02-22T08:45:21.146Z,51.40
2023-02-22T08:47:49.016Z,50.85
2023-02-22T08:50:22.703Z,50.98
2023-02-22T08:52:52.214Z,50.51
2023-02-22T08:55:23.958Z,51.12
2023-02-22T08:57:51.729Z,50.94
2023-02-22T09:00:20.714Z,51.23
2023-02-22T09:02:48.229Z,51.44
2023-02-22T09:05:17.048Z,51.53
2023-02-22T09:07:45.122Z,51.23
2023-02-22T09:10:18.449Z,50.73
2023-02-22T09:12:46.296Z,50.38
2023-02-22T09:15:14.884Z,49.97
2023-02-22T09:17:42.292Z,49.92
2023-02-22T09:20:12.294Z,49.87
2023-02-22T09:22:40.226Z,49.71
2023-02-22T09:25:16.178Z,49.43
2023-02-22T09:27:47.900Z,49.43
2023-02-22T09:30:23.753Z,49.96
2023-02-22T09:32:54.846Z,49.59
2023-02-22T09:35:27.420Z,49.38
2023-02-22T09:37:57.435Z,49.25
2023-02-22T09:40:30.457Z,48.76
2023-02-22T09:43:04.408Z,49.01
2023-02-22T09:45:36.928Z,48.90
2023-02-22T09:48:21.179Z,48.22
2023-02-22T09:50:51.494Z,48.23
2023-02-22T09:53:31.789Z,48.45
2023-02-22T09:56:07.208Z,48.70
2023-02-22T09:58:41.833Z,48.72
2023-02-22T10:01:26.909Z,48.65
2023-02-22T10:04:05.966Z,49.49
2023-02-22T10:06:34.822Z,48.87
2023-02-22T10:09:08.014Z,49.43
2023-02-22T10:11:57.637Z,48.68
2023-02-22T10:14:44.146Z,48.48
2023-02-22T10:17:30.453Z,48.61
2023-02-22T10:20:22.388Z,49.36
2023-02-22T10:22:56.671Z,48.94
2023-02-22T10:25:27.290Z,49.56
2023-02-22T10:28:06.375Z,49.02
2023-02-22T10:30:37.433Z,48.85
2023-02-22T10:33:17.682Z,47.98
2023-02-22T10:35:47.061Z,47.84
2023-02-22T10:38:20.204Z,47.87
2023-02-22T10:40:57.038Z,48.21
2023-02-22T10:43:25.777Z,47.61
2023-02-22T10:45:55.988Z,48.61
2023-02-22T10:48:25.313Z,48.33
2023-02-22T10:50:54.808Z,47.90
2023-02-22T10:53:23.132Z,47.79
2023-02-22T10:56:22.073Z,48.16
2023-02-22T10:58:59.559Z,48.19
2023-02-22T11:01:28.878Z,48.12
2023-02-22T11:04:08.828Z,47.83
2023-02-22T11:06:36.781Z,46.79
2023-02-22T11:09:17.914Z,46.95
2023-02-22T11:11:47.526Z,46.68
2023-02-22T11:14:29.441Z,46.32
2023-02-22T11:16:58.893Z,45.54
2023-02-22T11:19:31.690Z,46.02
2023-02-22T11:22:05.231Z,45.82
2023-02-22T11:24:48.400Z,45.99
2023-02-22T11:27:38.605Z,45.79
2023-02-22T11:30:30.435Z,45.77
2023-02-22T11:33:03.407Z,45.33
2023-02-22T11:35:38.040Z,45.85
2023-02-22T11:38:21.033Z,45.98
2023-02-22T11:41:14.805Z,45.86
2023-02-22T11:43:47.384Z,45.07
2023-02-22T11:46:18.066Z,45.71
2023-02-22T11:49:18.130Z,45.68
2023-02-22T11:52:16.968Z,45.88
2023-02-22T11:55:04.556Z,47.31
2023-02-22T11:58:08.317Z,46.00
2023-02-22T12:01:00.593Z,45.54
2023-02-22T12:03:34.273Z,45.13
2023-02-22T12:06:10.860Z,45.61
2023-02-22T12:09:04.359Z,45.76
2023-02-22T12:11:54.910Z,45.83
2023-02-22T12:14:43.581Z,45.76
2023-02-22T12:17:23.848Z,45.98
2023-02-22T12:19:55.500Z,45.86
2023-02-22T12:22:27.384Z,45.87
2023-02-22T12:25:08.581Z,45.66
2023-02-22T12:27:41.303Z,45.64
2023-02-22T12:30:18.589Z,45.11
2023-02-22T12:32:53.333Z,45.33
2023-02-22T12:35:24.552Z,45.75
2023-02-22T12:38:04.686Z,45.57
2023-02-22T12:40:37.756Z,45.56
2023-02-22T12:43:20.684Z,44.93
2023-02-22T12:46:03.077Z,44.74
2023-02-22T12:49:01.043Z,44.62
2023-02-22T12:51:37.741Z,44.90
2023-02-22T12:54:14.526Z,45.24
2023-02-22T12:56:48.932Z,44.27
2023-02-22T12:59:25.510Z,44.36
2023-02-22T13:02:14.683Z,44.02
2023-02-22T13:04:42.110Z,44.79
2023-02-22T13:07:38.331Z,44.71
2023-02-22T13:10:24.598Z,43.16
2023-02-22T13:13:15.276Z,42.02
2023-02-22T13:16:16.012Z,41.97
2023-02-22T13:18:58.056Z,41.92
2023-02-22T13:21:43.735Z,42.04
2023-02-22T13:24:21.269Z,41.93
2023-02-22T13:27:04.277Z,42.08
2023-02-22T13:29:38.835Z,43.06
2023-02-22T13:32:28.135Z,43.08
2023-02-22T13:35:17.541Z,43.43
2023-02-22T13:38:15.788Z,43.89
2023-02-22T13:41:15.096Z,44.49
2023-02-22T13:43:59.992Z,44.34
2023-02-22T13:46:36.839Z,44.67
2023-02-22T13:49:25.810Z,44.52
2023-02-22T13:52:02.670Z,45.01
2023-02-22T13:54:39.934Z,45.44
2023-02-22T13:57:25.780Z,45.79
2023-02-22T14:00:20.710Z,45.73
2023-02-22T14:03:40.485Z,45.96
2023-02-22T14:06:10.486Z,45.65
2023-02-22T14:08:41.290Z,45.14
2023-02-22T14:11:15.297Z,44.82
2023-02-22T14:13:55.581Z,45.44
2023-02-22T14:16:25.064Z,45.26
2023-02-22T14:19:06.578Z,45.33
2023-02-22T14:21:35.174Z,44.89
2023-02-22T14:24:16.235Z,44.75
2023-02-22T14:26:54.617Z,44.68
2023-02-22T14:29:22.353Z,44.89
2023-02-22T14:31:52.797Z,44.50
2023-02-22T14:34:41.562Z,43.77
2023-02-22T14:37:20.049Z,43.90
2023-02-22T14:40:12.744Z,43.87
2023-02-22T14:42:46.106Z,43.77
2023-02-22T14:45:28.569Z,46.36
2023-02-22T14:48:16.438Z,47.03
2023-02-22T14:50:51.369Z,48.77
2023-02-22T14:53:40.571Z,47.40
2023-02-22T14:56:29.834Z,45.44
2023-02-22T14:59:13.437Z,43.26
2023-02-22T15:01:52.728Z,42.75
2023-02-22T15:04:28.417Z,42.25
2023-02-22T15:06:57.628Z,42.98
2023-02-22T15:09:30.557Z,43.47
2023-02-22T15:12:05.244Z,43.73
2023-02-22T15:14:37.802Z,43.91
2023-02-22T15:17:21.261Z,43.54
2023-02-22T15:19:49.779Z,43.75
2023-02-22T15:22:24.770Z,43.65
2023-02-22T15:25:00.760Z,43.74
2023-02-22T15:27:28.775Z,43.68
2023-02-22T15:30:04.817Z,44.01
2023-02-22T15:32:38.710Z,43.24
2023-02-22T15:35:27.149Z,43.31
2023-02-22T15:38:21.609Z,43.32
2023-02-22T15:41:00.167Z,43.56
2023-02-22T15:43:28.588Z,43.43
2023-02-22T15:45:56.841Z,43.32
2023-02-22T15:48:26.725Z,43.44
2023-02-22T15:51:07.064Z,43.30
2023-02-22T15:53:39.891Z,43.35
2023-02-22T15:56:11.392Z,44.03
2023-02-22T15:58:39.329Z,44.03
2023-02-22T16:01:09.247Z,44.48
2023-02-22T16:03:45.924Z,46.46
2023-02-22T16:06:33.438Z,45.43
2023-02-22T16:09:11.306Z,45.09
2023-02-22T16:11:43.381Z,44.95
2023-02-22T16:14:37.237Z,45.09
2023-02-22T16:17:41.189Z,46.70
2023-02-22T16:20:14.346Z,44.84
2023-02-22T16:22:49.095Z,45.33
2023-02-22T16:25:21.395Z,45.68
2023-02-22T16:27:57.905Z,45.83
2023-02-22T16:30:39.436Z,45.82
2023-02-22T16:33:13.407Z,45.86
2023-02-22T16:35:48.490Z,46.63
2023-02-22T16:38:17.036Z,46.77
2023-02-22T16:40:58.431Z,47.05
2023-02-22T16:43:29.765Z,46.89
2023-02-22T16:45:58.139Z,46.95
2023-02-22T16:48:27.083Z,51.58
2023-02-22T16:50:57.047Z,48.36
2023-02-22T16:53:26.905Z,47.14
2023-02-22T16:55:58.093Z,47.16
2023-02-22T16:58:29.273Z,47.29
2023-02-22T17:00:57.435Z,47.40
2023-02-22T17:03:25.574Z,47.75
2023-02-22T17:05:53.266Z,47.78
2023-02-22T17:08:20.967Z,48.09
2023-02-22T17:10:51.488Z,48.46
2023-02-22T17:13:26.393Z,48.45
2023-02-22T17:15:56.391Z,47.50
2023-02-22T17:18:28.411Z,47.59
2023-02-22T17:20:56.086Z,48.04
2023-02-22T17:23:24.419Z,48.16
2023-02-22T17:25:54.070Z,48.37
2023-02-22T17:28:23.685Z,48.35
2023-02-22T17:30:52.720Z,48.31
2023-02-22T17:33:22.761Z,48.37
2023-02-22T17:35:50.265Z,48.74
2023-02-22T17:38:18.510Z,48.89
2023-02-22T17:40:54.712Z,48.78
2023-02-22T17:43:23.108Z,48.57
2023-02-22T17:45:50.700Z,48.63
2023-02-22T17:48:18.699Z,48.50
2023-02-22T17:50:47.836Z,48.86
2023-02-22T17:53:18.112Z,49.20
2023-02-22T17:55:45.782Z,49.36
2023-02-22T17:58:14.684Z,49.54
2023-02-22T18:00:45.548Z,49.87
2023-02-22T18:03:16.385Z,49.91
2023-02-22T18:05:46.329Z,49.87
2023-02-22T18:08:15.010Z,50.30
2023-02-22T18:10:43.775Z,50.17
2023-02-22T18:13:17.894Z,50.23
2023-02-22T18:15:46.517Z,50.12
2023-02-22T18:18:16.159Z,50.11
2023-02-22T18:20:51.358Z,50.26
2023-02-22T18:23:22.985Z,49.95
2023-02-22T18:26:09.247Z,50.19
2023-02-22T18:28:38.699Z,50.41
2023-02-22T18:31:08.539Z,50.52
2023-02-22T18:33:36.157Z,50.68
2023-02-22T18:36:04.618Z,50.94
2023-02-22T18:38:32.054Z,50.75
2023-02-22T18:41:04.844Z,50.86
2023-02-22T18:43:36.916Z,51.00
2023-02-22T18:46:12.180Z,50.81
2023-02-22T18:48:40.619Z,50.82
2023-02-22T18:51:10.717Z,51.13
2023-02-22T18:53:40.812Z,51.42
2023-02-22T18:56:15.180Z,51.48
2023-02-22T18:58:45.979Z,51.71
2023-02-22T19:01:18.408Z,51.93
2023-02-22T19:03:48.828Z,51.82
2023-02-22T19:06:17.785Z,51.61
2023-02-22T19:08:46.139Z,52.40
2023-02-22T19:11:17.922Z,51.81
2023-02-22T19:13:46.523Z,52.05
2023-02-22T19:16:15.196Z,52.38
2023-02-22T19:18:44.124Z,52.37
2023-02-22T19:21:13.939Z,52.38
2023-02-22T19:23:45.640Z,52.28
2023-02-22T19:26:18.814Z,52.17
2023-02-22T19:28:47.355Z,51.88
2023-02-22T19:31:46.225Z,52.21
2023-02-22T19:34:15.380Z,51.82
2023-02-22T19:36:46.235Z,52.10
2023-02-22T19:39:14.740Z,51.90
2023-02-22T19:41:42.696Z,51.88
2023-02-22T19:44:10.622Z,51.44
2023-02-22T19:46:38.509Z,51.75
2023-02-22T19:49:07.173Z,51.43
2023-02-22T19:51:34.838Z,50.51
2023-02-22T19:54:04.953Z,49.81
2023-02-22T19:56:35.123Z,49.29
2023-02-22T19:59:13.561Z,49.08
2023-02-22T20:01:44.141Z,49.44
2023-02-22T20:04:18.099Z,48.83
2023-02-22T20:06:46.242Z,48.46
2023-02-22T20:09:18.869Z,48.54
2023-02-22T20:11:46.382Z,48.63
2023-02-22T20:14:23.438Z,48.59
2023-02-22T20:16:51.882Z,48.34
2023-02-22T20:19:21.042Z,48.21
2023-02-22T20:21:49.054Z,47.55
2023-02-22T20:24:18.300Z,47.74
2023-02-22T20:26:46.826Z,47.79
2023-02-22T20:29:15.190Z,47.55
2023-02-22T20:31:43.462Z,47.44
2023-02-22T20:34:11.629Z,47.42
2023-02-22T20:36:41.384Z,47.24
2023-02-22T20:39:13.326Z,57.70
2023-02-22T20:41:42.836Z,47.61
2023-02-22T20:44:13.505Z,46.67
2023-02-22T20:46:41.715Z,46.73
2023-02-22T20:49:11.352Z,47.12
2023-02-22T20:51:42.112Z,46.88
2023-02-22T20:54:12.144Z,46.57
2023-02-22T20:56:42.146Z,46.26
2023-02-22T20:59:14.899Z,46.02
2023-02-22T21:01:42.312Z,45.84
2023-02-22T21:04:10.700Z,45.46
2023-02-22T21:06:39.641Z,45.57
2023-02-22T21:09:10.301Z,45.05
2023-02-22T21:11:38.917Z,45.41
2023-02-22T21:14:06.341Z,45.37
2023-02-22T21:16:36.195Z,45.49
2023-02-22T21:19:07.553Z,45.21
2023-02-22T21:21:35.589Z,45.42
2023-02-22T21:24:03.073Z,45.05
2023-02-22T21:26:32.753Z,45.55
2023-02-22T21:29:03.312Z,46.05
2023-02-22T21:31:32.048Z,45.37
2023-02-22T21:34:00.356Z,45.14
2023-02-22T21:36:28.388Z,44.92
2023-02-22T21:38:58.716Z,44.55
2023-02-22T21:41:28.840Z,44.91
2023-02-22T21:43:57.957Z,45.24
2023-02-22T21:46:27.548Z,44.92
2023-02-22T21:48:58.618Z,45.14
2023-02-22T21:51:31.924Z,45.37
2023-02-22T21:54:05.050Z,45.50
2023-02-22T21:56:36.305Z,45.46
2023-02-22T21:59:11.889Z,45.24
2023-02-22T22:01:46.981Z,45.29
2023-02-22T22:04:19.268Z,45.39
2023-02-22T22:06:49.040Z,45.47
2023-02-22T22:09:20.363Z,45.32
2023-02-22T22:11:52.022Z,45.17
2023-02-22T22:14:23.063Z,45.25
2023-02-22T22:16:53.425Z,45.24
2023-02-22T22:19:21.096Z,45.23
2023-02-22T22:21:50.124Z,45.51
2023-02-22T22:24:20.462Z,45.33
2023-02-22T22:26:54.642Z,45.48
2023-02-22T22:29:24.395Z,45.43
2023-02-22T22:31:52.555Z,45.33
2023-02-22T22:34:20.364Z,45.44
2023-02-22T22:36:47.941Z,45.61
2023-02-22T22:39:16.113Z,45.34
2023-02-22T22:41:44.312Z,45.51
2023-02-22T22:44:16.104Z,45.45
2023-02-22T22:46:49.091Z,45.67
2023-02-22T22:49:16.972Z,45.69
2023-02-22T22:51:47.348Z,45.77
2023-02-22T22:54:14.786Z,45.65
2023-02-22T22:56:42.188Z,45.71
2023-02-22T22:59:10.691Z,45.55
2023-02-22T23:01:40.673Z,45.07
2023-02-22T23:04:10.812Z,44.95
2023-02-22T23:06:41.061Z,45.30
2023-02-22T23:09:18.716Z,45.07
2023-02-22T23:11:50.627Z,45.23
2023-02-22T23:14:32.131Z,45.38
2023-02-22T23:17:03.257Z,45.33
2023-02-22T23:19:32.569Z,45.46
2023-02-22T23:22:01.388Z,45.43
2023-02-22T23:24:28.818Z,45.83
2023-02-22T23:27:07.137Z,45.58
2023-02-22T23:29:38.093Z,45.53
2023-02-22T23:32:06.209Z,45.61
2023-02-22T23:34:35.801Z,45.63
2023-02-22T23:37:03.731Z,45.36
2023-02-22T23:39:31.097Z,45.71
2023-02-22T23:41:59.238Z,45.50
2023-02-22T23:44:28.106Z,45.64
2023-02-22T23:46:55.896Z,45.58
2023-02-22T23:49:26.300Z,45.53
2023-02-22T23:51:54.276Z,45.54
2023-02-22T23:54:24.498Z,45.64
2023-02-22T23:56:58.511Z,45.94
2023-02-22T23:59:27.253Z,45.67
